WetterOnline ( http://www.wetteronline.de )

Wetter aktuell Daun

Aktuelles Wetter: Nürburg-Barweiler (488m)

6-stündlich | Neueste Meldungen
Ortszeit Temperatur Wetter
Sa, 21.07. 20:00 17.6° C bedeckt
Sa, 21.07. 14:00 23.1° C bewölkt
Sa, 21.07. 8:00 14.6° C bewölkt
Sa, 21.07. 2:00 17.0° C wolkig
Fr, 20.07. 20:00 21.5° C bewölkt
Fr, 20.07. 14:00 25.4° C wolkig
Fr, 20.07. 8:00 15.4° C bedeckt
Fr, 20.07. 2:00 16.8° C wolkig
Ortszeit Temperatur Wetter
Sa, 21.07. 21:00 17.3° C bedeckt
Sa, 21.07. 20:50 17.3° C bedeckt
Sa, 21.07. 20:40 17.7° C bedeckt
Sa, 21.07. 20:30 17.6° C bedeckt
Sa, 21.07. 20:20 17.6° C bedeckt
Sa, 21.07. 20:10 17.5° C bedeckt
Sa, 21.07. 20:00 17.6° C bedeckt
Sa, 21.07. 19:30 17.5° C leichter Regen
Sa, 21.07. 19:00 17.9° C Regen
Sa, 21.07. 18:30 17.8° C leichter Regen
Sa, 21.07. 18:00 17.8° C leichter Regen
Ortszeit Relative Feuchte Sichtweite
Sa, 21.07. 20:00 86% 5.0 km
Sa, 21.07. 14:00 46% 21 km
Sa, 21.07. 8:00 75% 16 km
Sa, 21.07. 2:00 66% 18 km
Fr, 20.07. 20:00 57% 17 km
Fr, 20.07. 14:00 34% 27 km
Fr, 20.07. 8:00 73% 10 km
Fr, 20.07. 2:00 63% 19 km
Ortszeit Relative Feuchte Sichtweite
Sa, 21.07. 21:00 87% 4.8 km
Sa, 21.07. 20:50 87% -
Sa, 21.07. 20:40 84% -
Sa, 21.07. 20:30 85% 4.7 km
Sa, 21.07. 20:20 85% -
Sa, 21.07. 20:10 88% -
Sa, 21.07. 20:00 86% 5.0 km
Sa, 21.07. 19:30 92% 3.7 km
Sa, 21.07. 19:00 89% 4.8 km
Sa, 21.07. 18:30 90% 3.5 km
Sa, 21.07. 18:00 90% 4.1 km
Ortszeit Niederschlagsmenge Niederschlagsart
Sa, 21.07. 20:00 2 l/m2 in 12 Std. Regen
Sa, 21.07. 14:00 0.0 l/m2 in 6 Std. -
Sa, 21.07. 8:00 0.0 l/m2 in 12 Std. -
Sa, 21.07. 2:00 0.0 l/m2 in 6 Std. -
Fr, 20.07. 20:00 0.1 l/m2 in 12 Std. Regen
Fr, 20.07. 14:00 0.0 l/m2 in 6 Std. -
Fr, 20.07. 8:00 0.0 l/m2 in 12 Std. -
Fr, 20.07. 2:00 0.0 l/m2 in 6 Std. -
Ortszeit Niederschlagsmenge Niederschlagsart
Sa, 21.07. 21:00 0.0 l/m2 in 1 Std. -
Sa, 21.07. 20:50 keine Meldung -
Sa, 21.07. 20:40 keine Meldung -
Sa, 21.07. 20:30 0.0 l/m2 in 1 Std. -
Sa, 21.07. 20:20 keine Meldung -
Sa, 21.07. 20:10 keine Meldung -
Sa, 21.07. 20:00 0.1 l/m2 in 1 Std. Regen
Sa, 21.07. 19:30 0.1 l/m2 in 1 Std. -
Sa, 21.07. 19:00 0.3 l/m2 in 1 Std. Regen
Sa, 21.07. 18:30 0.2 l/m2 in 1 Std. -
Sa, 21.07. 18:00 0.1 l/m2 in 1 Std. Regen
Ortszeit Stärke Spitze Richtung
km/h Bft. km/h Grad Sektor
Sa, 21.07. 20:00 7 2 26 180° S
Sa, 21.07. 14:00 7 2 14 50° NO
Sa, 21.07. 8:00 4 1 14 340° N
Sa, 21.07. 2:00 7 2 18 40° NO
Fr, 20.07. 20:00 9 2 33 350° N
Fr, 20.07. 14:00 11 2 25 250° W
Fr, 20.07. 8:00 0 0 7 - -
Fr, 20.07. 2:00 4 1 14 30° NO
Ortszeit Stärke Spitze Richtung
km/h Bft. km/h Grad Sektor
Sa, 21.07. 21:00 6 1 13 200° S
Sa, 21.07. 20:50 6 1 - 200° S
Sa, 21.07. 20:40 11 2 - 170° S
Sa, 21.07. 20:30 9 2 13 180° S
Sa, 21.07. 20:20 9 2 - 180° S
Sa, 21.07. 20:10 9 2 - 180° S
Sa, 21.07. 20:00 7 2 11 180° S
Sa, 21.07. 19:30 7 2 11 200° S
Sa, 21.07. 19:00 7 2 11 200° S
Sa, 21.07. 18:30 6 1 7 250° W
Sa, 21.07. 18:00 7 2 14 260° W
Ortszeit Untergrenze Bedeckung Gattung
total tief tief mittel hoch
Sa, 21.07. 20:00 2700 m 8/8 8/8 - - -
Sa, 21.07. 14:00 1440 m 8/8 4/8 - - -
Sa, 21.07. 8:00 3300 m 8/8 6/8 - - -
Sa, 21.07. 2:00 7800 m 8/8 0/8 - - -
Fr, 20.07. 20:00 2400 m 8/8 7/8 - - -
Fr, 20.07. 14:00 2100 m 7/8 5/8 - - -
Fr, 20.07. 8:00 5700 m 8/8 8/8 - - -
Fr, 20.07. 2:00 6300 m 8/8 2/8 - - -
Ortszeit Bedeckungsgrad in Achtel und Wolkenuntergrenze
Sa, 21.07. 21:00 8(2700m)
Sa, 21.07. 20:50 8(2700m)
Sa, 21.07. 20:40 8(2700m) 8(3300m)
Sa, 21.07. 20:30 8(2400m)
Sa, 21.07. 20:20 8(2400m)
Sa, 21.07. 20:10 8(2400m)
Sa, 21.07. 20:00 8(2700m)
Sa, 21.07. 19:30 8(2700m)
Sa, 21.07. 19:00 1(960m) 3(2100m) 8(2700m)
Sa, 21.07. 18:30 1(1500m) 5(2100m) 8(3000m)
Sa, 21.07. 18:00 1(1500m) 8(2100m) 8(3000m)
Ortszeit Luftdruck NN (hPa) Tendenz (hPa in 3 Std.)
Sa, 21.07. 20:00 1012 0,0
Sa, 21.07. 14:00 1011 + 0,1
Sa, 21.07. 8:00 1012 + 0,7
Sa, 21.07. 2:00 1011 - 0,5
Fr, 20.07. 20:00 1011 - 0,2
Fr, 20.07. 14:00 1012 - 0,7
Fr, 20.07. 8:00 1015 - 0,7
Fr, 20.07. 2:00 1017 - 0,1
Ortszeit Luftdruck NN (hPa) Tendenz (hPa in 3 Std.)
Sa, 21.07. 21:00 1012 - 0,1
Sa, 21.07. 20:50 1012 keine Meldung
Sa, 21.07. 20:40 1012 keine Meldung
Sa, 21.07. 20:30 1012 - 0,1
Sa, 21.07. 20:20 1012 keine Meldung
Sa, 21.07. 20:10 1012 keine Meldung
Sa, 21.07. 20:00 1012 0,0
Sa, 21.07. 19:30 1012 + 0,4
Sa, 21.07. 19:00 1012 + 0,3
Sa, 21.07. 18:30 1012 + 0,5
Sa, 21.07. 18:00 1012 + 0,8
Ortszeit Schneehöhe (cm)
Sa, 21.07. 20:00 -
Sa, 21.07. 14:00 -
Sa, 21.07. 8:00 -
Sa, 21.07. 2:00 -
Fr, 20.07. 20:00 -
Fr, 20.07. 14:00 -
Fr, 20.07. 8:00 -
Fr, 20.07. 2:00 -
Ortszeit Schneehöhe (cm)
Sa, 21.07. 21:00 -
Sa, 21.07. 20:50 -
Sa, 21.07. 20:40 -
Sa, 21.07. 20:30 -
Sa, 21.07. 20:20 -
Sa, 21.07. 20:10 -
Sa, 21.07. 20:00 -
Sa, 21.07. 19:30 -
Sa, 21.07. 19:00 -
Sa, 21.07. 18:30 -
Sa, 21.07. 18:00 -
Link zu dieser Seite / Seite empfehlen

Das Wetter in ...